Salt Lake City (SLC/KSLC)

Information

Location
Salt Lake City, UT
Local Time
17:23 / 5:23 pm
GMT Time
00:23 / 12:23 am
Gates
Unassigned
No FAA reported delays
METAR KSLC 222354Z 10005KT 10SM FEW033 BKN050 OVC060 03/01 A2980 RMK AO2 RAB07E17 SLP090 VCSH ALQDS P0000 60000 T00330006 10050 20028 58020
TAF KSLC 222323Z 2300/2406 19006KT P6SM VCSH SCT025 OVC035 FM230030 32010KT 4SM -SN BR BKN011 OVC025 FM230400 29006KT P6SM BKN025 OVC050 FM231000 28010KT 5SM -SHSN BR BKN025 OVC040 FM231300 29010KT 2SM -SN BR BKN012 OVC025
  • No charts available